createdAt,value
2022-08-28T00:00:40.246Z,21.13
2022-08-28T00:03:10.347Z,21.10
2022-08-28T00:05:42.049Z,21.06
2022-08-28T00:08:14.188Z,21.11
2022-08-28T00:10:42.996Z,21.11
2022-08-28T00:13:18.523Z,21.06
2022-08-28T00:15:50.724Z,20.99
2022-08-28T00:18:18.742Z,20.98
2022-08-28T00:20:46.606Z,20.96
2022-08-28T00:23:15.061Z,20.83
2022-08-28T00:25:42.717Z,20.73
2022-08-28T00:28:23.441Z,20.69
2022-08-28T00:30:56.466Z,20.67
2022-08-28T00:33:33.152Z,20.66
2022-08-28T00:36:02.520Z,20.65
2022-08-28T00:38:30.887Z,20.71
2022-08-28T00:41:03.900Z,20.66
2022-08-28T00:43:43.585Z,20.60
2022-08-28T00:46:23.629Z,20.49
2022-08-28T00:48:51.143Z,20.43
2022-08-28T00:51:38.924Z,20.39
2022-08-28T00:54:08.389Z,20.40
2022-08-28T00:56:39.855Z,20.45
2022-08-28T00:59:15.974Z,20.45
2022-08-28T01:01:46.558Z,20.40
2022-08-28T01:04:18.705Z,20.34
2022-08-28T01:06:53.494Z,20.27
2022-08-28T01:09:25.966Z,20.30
2022-08-28T01:12:00.686Z,20.33
2022-08-28T01:14:31.210Z,20.35
2022-08-28T01:16:59.034Z,20.34
2022-08-28T01:19:37.330Z,20.41
2022-08-28T01:22:26.820Z,20.50
2022-08-28T01:24:59.347Z,20.59
2022-08-28T01:27:27.909Z,20.62
2022-08-28T01:29:55.431Z,20.62
2022-08-28T01:32:38.810Z,20.69
2022-08-28T01:35:12.887Z,20.75
2022-08-28T01:37:41.306Z,20.73
2022-08-28T01:40:12.304Z,20.76
2022-08-28T01:42:42.615Z,20.77
2022-08-28T01:45:15.895Z,20.77
2022-08-28T01:47:45.549Z,20.73
2022-08-28T01:50:17.267Z,20.68
2022-08-28T01:52:44.860Z,20.69
2022-08-28T01:55:14.100Z,20.67
2022-08-28T01:57:53.842Z,20.67
2022-08-28T02:00:26.884Z,20.67
2022-08-28T02:02:58.279Z,20.63
2022-08-28T02:05:30.390Z,20.58
2022-08-28T02:08:00.319Z,20.62
2022-08-28T02:10:31.649Z,20.73
2022-08-28T02:12:59.537Z,20.86
2022-08-28T02:15:29.636Z,20.98
2022-08-28T02:17:58.175Z,20.93
2022-08-28T02:20:28.659Z,20.92
2022-08-28T02:22:58.024Z,20.86
2022-08-28T02:25:27.948Z,20.76
2022-08-28T02:27:56.401Z,20.57
2022-08-28T02:30:24.095Z,20.43
2022-08-28T02:32:52.206Z,20.35
2022-08-28T02:35:22.591Z,20.31
2022-08-28T02:37:50.809Z,20.27
2022-08-28T02:40:25.448Z,20.33
2022-08-28T02:42:53.670Z,20.25
2022-08-28T02:45:21.321Z,20.06
2022-08-28T02:47:54.230Z,19.91
2022-08-28T02:50:22.937Z,19.61
2022-08-28T02:52:52.040Z,19.47
2022-08-28T02:55:20.977Z,19.35
2022-08-28T02:57:49.433Z,19.26
2022-08-28T03:00:24.723Z,19.20
2022-08-28T03:02:53.397Z,19.11
2022-08-28T03:05:24.890Z,19.07
2022-08-28T03:07:53.665Z,19.04
2022-08-28T03:10:21.753Z,19.06
2022-08-28T03:12:49.343Z,19.05
2022-08-28T03:15:18.020Z,19.07
2022-08-28T03:17:45.867Z,19.09
2022-08-28T03:20:16.903Z,19.17
2022-08-28T03:23:02.920Z,19.16
2022-08-28T03:25:30.488Z,19.17
2022-08-28T03:27:57.997Z,19.17
2022-08-28T03:30:25.697Z,19.26
2022-08-28T03:32:53.975Z,19.29
2022-08-28T03:35:21.905Z,19.24
2022-08-28T03:37:49.459Z,19.21
2022-08-28T03:40:17.102Z,19.16
2022-08-28T03:42:49.488Z,19.25
2022-08-28T03:45:21.303Z,19.31
2022-08-28T03:47:49.111Z,19.34
2022-08-28T03:50:18.583Z,19.31
2022-08-28T03:52:47.626Z,19.31
2022-08-28T03:55:15.386Z,19.32
2022-08-28T03:57:42.896Z,19.35
2022-08-28T04:00:13.530Z,19.30
2022-08-28T04:02:42.712Z,19.31
2022-08-28T04:05:11.208Z,19.30
2022-08-28T04:07:40.141Z,19.30
2022-08-28T04:10:08.694Z,19.27
2022-08-28T04:12:37.071Z,19.24
2022-08-28T04:15:07.068Z,19.24
2022-08-28T04:17:38.570Z,19.23
2022-08-28T04:20:08.757Z,19.20
2022-08-28T04:22:37.199Z,19.27
2022-08-28T04:25:06.219Z,19.33
2022-08-28T04:27:34.267Z,19.34
2022-08-28T04:30:01.874Z,19.34
2022-08-28T04:32:29.279Z,19.37
2022-08-28T04:34:56.823Z,19.42
2022-08-28T04:37:26.187Z,19.47
2022-08-28T04:39:55.529Z,19.61
2022-08-28T04:42:23.085Z,19.70
2022-08-28T04:44:50.849Z,19.81
2022-08-28T04:47:18.405Z,19.96
2022-08-28T04:49:45.882Z,19.95
2022-08-28T04:52:13.614Z,20.04
2022-08-28T04:54:41.074Z,20.07
2022-08-28T04:57:08.635Z,20.03
2022-08-28T04:59:37.044Z,20.22
2022-08-28T05:02:05.613Z,20.20
2022-08-28T05:04:33.111Z,20.38
2022-08-28T05:07:00.674Z,20.20
2022-08-28T05:09:28.199Z,20.15
2022-08-28T05:11:55.663Z,20.18
2022-08-28T05:14:23.152Z,20.40
2022-08-28T05:16:53.291Z,20.68
2022-08-28T05:19:21.797Z,21.00
2022-08-28T05:21:49.492Z,21.14
2022-08-28T05:24:18.067Z,21.39
2022-08-28T05:26:48.213Z,21.56
2022-08-28T05:29:17.083Z,21.93
2022-08-28T05:31:46.300Z,22.25
2022-08-28T05:34:15.507Z,22.41
2022-08-28T05:36:43.077Z,22.80
2022-08-28T05:39:13.019Z,22.81
2022-08-28T05:41:43.946Z,22.92
2022-08-28T05:44:14.997Z,23.10
2022-08-28T05:46:48.045Z,23.18
2022-08-28T05:49:18.352Z,23.54
2022-08-28T05:51:46.393Z,23.96
2022-08-28T05:54:15.659Z,23.71
2022-08-28T05:56:45.384Z,24.62
2022-08-28T05:59:14.703Z,24.83
2022-08-28T06:01:49.093Z,25.20
2022-08-28T06:04:25.232Z,25.54
2022-08-28T06:06:54.271Z,25.36
2022-08-28T06:09:29.428Z,25.81
2022-08-28T06:12:01.016Z,26.41
2022-08-28T06:14:30.312Z,26.34
2022-08-28T06:16:58.822Z,25.95
2022-08-28T06:19:30.075Z,26.42
2022-08-28T06:22:01.028Z,26.94
2022-08-28T06:24:35.075Z,27.35
2022-08-28T06:27:02.694Z,26.41
2022-08-28T06:29:30.572Z,26.87
2022-08-28T06:32:03.400Z,27.01
2022-08-28T06:34:31.391Z,26.50
2022-08-28T06:36:59.283Z,27.29
2022-08-28T06:39:26.964Z,27.21
2022-08-28T06:41:54.561Z,26.88
2022-08-28T06:44:22.871Z,27.59
2022-08-28T06:46:53.945Z,27.03
2022-08-28T06:49:22.472Z,27.51
2022-08-28T06:51:50.553Z,27.86
2022-08-28T06:54:22.694Z,28.25
2022-08-28T06:56:52.431Z,27.99
2022-08-28T06:59:19.955Z,28.77
2022-08-28T07:01:49.337Z,28.25
2022-08-28T07:04:16.950Z,28.62
2022-08-28T07:06:46.731Z,28.28
2022-08-28T07:09:14.736Z,28.74
2022-08-28T07:11:49.078Z,29.22
2022-08-28T07:14:17.117Z,28.62
2022-08-28T07:16:44.953Z,29.27
2022-08-28T07:19:13.699Z,28.23
2022-08-28T07:21:45.204Z,28.88
2022-08-28T07:24:15.298Z,29.84
2022-08-28T07:26:44.925Z,29.45
2022-08-28T07:29:14.398Z,28.67
2022-08-28T07:31:46.939Z,29.08
2022-08-28T07:34:16.408Z,29.60
2022-08-28T07:36:45.048Z,29.18
2022-08-28T07:39:15.552Z,29.59
2022-08-28T07:41:43.595Z,30.17
2022-08-28T07:44:33.271Z,30.14
2022-08-28T07:47:04.516Z,30.66
2022-08-28T07:49:34.032Z,30.10
2022-08-28T07:52:02.881Z,30.96
2022-08-28T07:54:30.627Z,30.48
2022-08-28T07:56:58.366Z,31.25
2022-08-28T07:59:26.103Z,31.27
2022-08-28T08:01:53.694Z,31.52
2022-08-28T08:04:23.451Z,31.49
2022-08-28T08:06:57.878Z,31.88
2022-08-28T08:09:27.239Z,30.58
2022-08-28T08:11:57.489Z,31.26
2022-08-28T08:14:25.450Z,31.09
2022-08-28T08:16:53.589Z,31.09
2022-08-28T08:19:21.399Z,30.75
2022-08-28T08:21:53.367Z,31.38
2022-08-28T08:24:26.767Z,30.90
2022-08-28T08:27:00.264Z,32.20
2022-08-28T08:29:33.035Z,32.31
2022-08-28T08:32:08.519Z,32.28
2022-08-28T08:34:43.071Z,34.20
2022-08-28T08:37:11.687Z,32.88
2022-08-28T08:39:42.242Z,32.45
2022-08-28T08:42:33.088Z,33.89
2022-08-28T08:45:04.297Z,32.98
2022-08-28T08:47:47.710Z,32.64
2022-08-28T08:50:42.614Z,32.10
2022-08-28T08:53:22.742Z,32.53
2022-08-28T08:55:56.896Z,33.06
2022-08-28T08:58:39.627Z,33.59
2022-08-28T09:01:41.055Z,33.08
2022-08-28T09:04:49.020Z,32.43
2022-08-28T09:07:16.400Z,31.65
2022-08-28T09:09:56.275Z,31.35
2022-08-28T09:12:31.265Z,33.34
2022-08-28T09:15:09.757Z,33.10
2022-08-28T09:17:47.970Z,33.23
2022-08-28T09:20:24.198Z,34.03
2022-08-28T09:23:02.134Z,33.45
2022-08-28T09:26:05.914Z,33.20
2022-08-28T09:28:44.658Z,33.66
2022-08-28T09:31:33.053Z,34.14
2022-08-28T09:34:21.189Z,35.65
2022-08-28T09:36:48.789Z,35.38
2022-08-28T09:39:32.081Z,34.64
2022-08-28T09:42:33.131Z,34.53
2022-08-28T09:45:18.313Z,34.33
2022-08-28T09:47:56.718Z,36.02
2022-08-28T09:50:38.677Z,36.48
2022-08-28T09:53:09.113Z,34.95
2022-08-28T09:55:59.115Z,35.70
2022-08-28T09:58:34.057Z,34.60
2022-08-28T10:01:50.973Z,34.77
2022-08-28T10:04:40.014Z,35.02
2022-08-28T10:07:46.809Z,34.97
2022-08-28T10:10:53.883Z,34.56
2022-08-28T10:13:31.462Z,35.20
2022-08-28T10:16:48.304Z,35.30
2022-08-28T10:20:02.773Z,34.97
2022-08-28T10:23:06.848Z,35.62
2022-08-28T10:25:54.162Z,36.24
2022-08-28T10:29:02.475Z,37.21
2022-08-28T10:32:09.837Z,35.81
2022-08-28T10:34:49.143Z,36.24
2022-08-28T10:37:44.870Z,36.68
2022-08-28T10:40:32.813Z,37.55
2022-08-28T10:43:47.921Z,37.10
2022-08-28T10:46:37.057Z,35.10
2022-08-28T10:49:17.216Z,34.85
2022-08-28T10:51:52.221Z,35.15
2022-08-28T10:55:02.762Z,35.49
2022-08-28T10:57:58.031Z,34.22
2022-08-28T11:00:28.692Z,35.21
2022-08-28T11:03:11.745Z,35.79
2022-08-28T11:06:01.890Z,35.98
2022-08-28T11:08:37.130Z,37.45
2022-08-28T11:11:12.818Z,38.62
2022-08-28T11:13:50.303Z,37.92
2022-08-28T11:16:23.772Z,37.05
2022-08-28T11:19:43.411Z,37.49
2022-08-28T11:22:17.799Z,38.42
2022-08-28T11:25:26.469Z,38.38
2022-08-28T11:28:18.258Z,37.95
2022-08-28T11:31:06.003Z,37.95
2022-08-28T11:33:55.500Z,36.83
2022-08-28T11:36:23.457Z,36.69
2022-08-28T11:38:57.527Z,36.55
2022-08-28T11:41:34.043Z,37.55
2022-08-28T11:44:13.517Z,37.77
2022-08-28T11:46:52.947Z,37.93
2022-08-28T11:49:26.570Z,37.96
2022-08-28T11:52:46.126Z,37.89
2022-08-28T11:55:45.370Z,37.15
2022-08-28T11:58:53.391Z,36.14
2022-08-28T12:01:35.411Z,37.02
2022-08-28T12:04:13.486Z,36.95
2022-08-28T12:06:55.129Z,37.61
2022-08-28T12:09:41.842Z,37.19
2022-08-28T12:12:21.535Z,36.71
2022-08-28T12:14:54.978Z,36.42
2022-08-28T12:17:22.631Z,36.28
2022-08-28T12:19:59.804Z,35.84
2022-08-28T12:22:53.020Z,35.58
2022-08-28T12:25:35.930Z,35.69
2022-08-28T12:28:32.291Z,36.13
2022-08-28T12:31:05.914Z,36.17
2022-08-28T12:33:52.326Z,35.95
2022-08-28T12:36:26.776Z,35.94
2022-08-28T12:39:00.457Z,35.52
2022-08-28T12:41:28.281Z,35.48
2022-08-28T12:43:59.813Z,35.68
2022-08-28T12:46:35.162Z,34.68
2022-08-28T12:49:25.496Z,35.33
2022-08-28T12:52:16.730Z,34.81
2022-08-28T12:54:48.006Z,35.13
2022-08-28T12:57:20.216Z,34.97
2022-08-28T12:59:55.497Z,34.75
2022-08-28T13:02:29.263Z,33.64
2022-08-28T13:05:22.379Z,33.40
2022-08-28T13:07:56.389Z,33.17
2022-08-28T13:10:51.299Z,33.51
2022-08-28T13:13:23.252Z,33.81
2022-08-28T13:15:57.983Z,33.35
2022-08-28T13:18:50.238Z,33.57
2022-08-28T13:21:17.639Z,33.63
2022-08-28T13:24:21.343Z,33.42
2022-08-28T13:27:00.707Z,33.27
2022-08-28T13:29:29.009Z,33.43
2022-08-28T13:32:07.356Z,33.37
2022-08-28T13:34:47.775Z,32.91
2022-08-28T13:37:44.777Z,32.82
2022-08-28T13:40:31.664Z,32.59
2022-08-28T13:43:10.128Z,32.26
2022-08-28T13:45:46.466Z,32.13
2022-08-28T13:48:24.629Z,32.64
2022-08-28T13:51:12.024Z,32.62
2022-08-28T13:53:46.590Z,32.81
2022-08-28T13:56:14.375Z,32.80
2022-08-28T13:58:41.866Z,32.68
2022-08-28T14:01:10.956Z,32.69
2022-08-28T14:03:39.159Z,32.67
2022-08-28T14:06:11.767Z,32.25
2022-08-28T14:08:41.871Z,32.06
2022-08-28T14:11:12.576Z,31.89
2022-08-28T14:13:47.200Z,31.92
2022-08-28T14:16:25.190Z,32.16
2022-08-28T14:18:53.139Z,31.92
2022-08-28T14:21:24.359Z,31.60
2022-08-28T14:23:52.047Z,31.65
2022-08-28T14:26:19.763Z,31.60
2022-08-28T14:28:47.298Z,31.72
2022-08-28T14:31:15.030Z,31.75
2022-08-28T14:33:45.184Z,31.80
2022-08-28T14:36:23.216Z,31.66
2022-08-28T14:38:54.216Z,31.64
2022-08-28T14:41:24.127Z,31.54
2022-08-28T14:43:54.191Z,31.51
2022-08-28T14:46:28.519Z,31.41
2022-08-28T14:49:02.522Z,31.25
2022-08-28T14:51:34.344Z,31.18
2022-08-28T14:54:02.535Z,31.22
2022-08-28T14:56:32.023Z,31.22
2022-08-28T14:59:01.667Z,31.19
2022-08-28T15:01:40.279Z,31.14
2022-08-28T15:04:16.663Z,31.27
2022-08-28T15:06:45.147Z,31.21
2022-08-28T15:09:14.487Z,31.22
2022-08-28T15:11:44.072Z,31.20
2022-08-28T15:14:12.408Z,31.17
2022-08-28T15:16:45.811Z,31.14
2022-08-28T15:19:19.892Z,31.18
2022-08-28T15:21:53.110Z,31.13
2022-08-28T15:24:25.987Z,31.12
2022-08-28T15:26:53.816Z,31.04
2022-08-28T15:29:21.289Z,30.95
2022-08-28T15:31:50.760Z,30.91
2022-08-28T15:34:23.535Z,30.83
2022-08-28T15:36:55.569Z,30.83
2022-08-28T15:39:46.976Z,30.84
2022-08-28T15:42:15.600Z,30.72
2022-08-28T15:44:43.435Z,30.58
2022-08-28T15:47:12.554Z,30.38
2022-08-28T15:49:46.640Z,30.28
2022-08-28T15:52:18.809Z,30.15
2022-08-28T15:54:47.734Z,30.04
2022-08-28T15:57:16.226Z,29.89
2022-08-28T15:59:49.498Z,29.85
2022-08-28T16:02:21.264Z,29.77
2022-08-28T16:04:49.985Z,29.77
2022-08-28T16:07:20.392Z,29.69
2022-08-28T16:09:48.641Z,29.63
2022-08-28T16:12:16.474Z,29.63
2022-08-28T16:14:44.289Z,29.63
2022-08-28T16:17:12.350Z,29.66
2022-08-28T16:19:41.378Z,29.68
2022-08-28T16:22:11.892Z,29.71
2022-08-28T16:24:39.410Z,29.62
2022-08-28T16:27:09.693Z,29.55
2022-08-28T16:29:40.967Z,29.39
2022-08-28T16:32:08.613Z,29.35
2022-08-28T16:34:39.999Z,29.23
2022-08-28T16:37:08.165Z,29.11
2022-08-28T16:39:38.200Z,29.01
2022-08-28T16:42:08.085Z,28.99
2022-08-28T16:44:36.939Z,28.89
2022-08-28T16:47:04.651Z,28.82
2022-08-28T16:49:32.226Z,28.70
2022-08-28T16:51:59.726Z,28.66
2022-08-28T16:54:27.439Z,28.56
2022-08-28T16:56:55.067Z,28.43
2022-08-28T16:59:24.123Z,28.30
2022-08-28T17:01:52.141Z,28.17
2022-08-28T17:04:22.113Z,28.10
2022-08-28T17:06:49.923Z,28.03
2022-08-28T17:09:17.449Z,27.95
2022-08-28T17:11:52.025Z,27.89
2022-08-28T17:14:24.325Z,27.82
2022-08-28T17:16:52.856Z,27.75
2022-08-28T17:19:23.197Z,27.67
2022-08-28T17:22:10.246Z,27.59
2022-08-28T17:24:38.047Z,27.54
2022-08-28T17:27:06.856Z,27.44
2022-08-28T17:29:38.385Z,27.40
2022-08-28T17:32:07.810Z,27.39
2022-08-28T17:34:35.950Z,27.36
2022-08-28T17:37:04.361Z,27.29
2022-08-28T17:39:32.070Z,27.26
2022-08-28T17:41:59.957Z,27.14
2022-08-28T17:44:27.956Z,27.12
2022-08-28T17:46:56.031Z,27.07
2022-08-28T17:49:23.680Z,27.06
2022-08-28T17:51:51.149Z,27.10
2022-08-28T17:54:21.665Z,27.18
2022-08-28T17:56:51.311Z,27.13
2022-08-28T17:59:19.530Z,27.05
2022-08-28T18:01:48.283Z,27.02
2022-08-28T18:04:23.938Z,26.99
2022-08-28T18:06:54.512Z,26.97
2022-08-28T18:09:24.119Z,27.00
2022-08-28T18:11:52.130Z,26.97
2022-08-28T18:14:20.991Z,26.90
2022-08-28T18:16:49.114Z,26.87
2022-08-28T18:19:16.890Z,26.86
2022-08-28T18:21:45.106Z,26.70
2022-08-28T18:24:13.338Z,26.49
2022-08-28T18:26:42.923Z,26.17
2022-08-28T18:29:12.146Z,25.93
2022-08-28T18:31:41.706Z,25.78
2022-08-28T18:34:11.768Z,25.66
2022-08-28T18:36:41.682Z,25.52
2022-08-28T18:39:10.382Z,25.39
2022-08-28T18:41:43.149Z,25.19
2022-08-28T18:44:14.616Z,25.06
2022-08-28T18:46:44.198Z,24.90
2022-08-28T18:49:12.614Z,24.73
2022-08-28T18:51:43.927Z,24.62
2022-08-28T18:54:16.401Z,24.54
2022-08-28T18:56:46.334Z,24.46
2022-08-28T18:59:16.109Z,24.37
2022-08-28T19:01:43.682Z,24.39
2022-08-28T19:04:11.317Z,24.35
2022-08-28T19:06:40.994Z,24.32
2022-08-28T19:09:08.476Z,24.33
2022-08-28T19:11:36.256Z,24.31
2022-08-28T19:14:04.738Z,24.25
2022-08-28T19:16:32.627Z,24.22
2022-08-28T19:19:02.648Z,24.13
2022-08-28T19:21:30.329Z,24.06
2022-08-28T19:23:57.952Z,24.04
2022-08-28T19:26:27.404Z,24.01
2022-08-28T19:28:55.676Z,23.99
2022-08-28T19:31:25.241Z,23.93
2022-08-28T19:33:53.605Z,23.87
2022-08-28T19:36:21.433Z,23.72
2022-08-28T19:38:49.034Z,23.67
2022-08-28T19:41:17.659Z,23.53
2022-08-28T19:43:45.353Z,23.43
2022-08-28T19:46:19.477Z,23.33
2022-08-28T19:48:53.870Z,23.26
2022-08-28T19:51:24.197Z,23.16
2022-08-28T19:53:58.422Z,23.08
2022-08-28T19:56:34.459Z,22.98
2022-08-28T19:59:04.539Z,22.95
2022-08-28T20:01:41.079Z,22.90
2022-08-28T20:04:10.288Z,22.85
2022-08-28T20:06:37.939Z,22.77
2022-08-28T20:09:10.684Z,22.68
2022-08-28T20:11:42.127Z,22.64
2022-08-28T20:14:09.983Z,22.64
2022-08-28T20:16:40.600Z,22.53
2022-08-28T20:19:10.759Z,22.45
2022-08-28T20:21:42.627Z,22.46
2022-08-28T20:24:17.513Z,22.41
2022-08-28T20:26:45.031Z,22.31
2022-08-28T20:29:14.291Z,22.29
2022-08-28T20:31:47.237Z,22.30
2022-08-28T20:34:18.543Z,22.27
2022-08-28T20:36:47.380Z,22.23
2022-08-28T20:39:15.904Z,22.28
2022-08-28T20:41:44.949Z,22.31
2022-08-28T20:44:16.561Z,22.39
2022-08-28T20:46:44.475Z,22.25
2022-08-28T20:49:22.126Z,22.15
2022-08-28T20:51:53.723Z,22.16
2022-08-28T20:54:28.822Z,22.19
2022-08-28T20:57:01.744Z,22.12
2022-08-28T20:59:39.555Z,22.03
2022-08-28T21:02:13.307Z,22.02
2022-08-28T21:04:43.149Z,21.96
2022-08-28T21:07:13.784Z,21.94
2022-08-28T21:10:06.119Z,21.89
2022-08-28T21:12:29.543Z,21.84
2022-08-28T21:14:57.447Z,21.73
2022-08-28T21:17:28.799Z,21.67
2022-08-28T21:20:10.209Z,21.70
2022-08-28T21:22:39.748Z,21.69
2022-08-28T21:25:10.454Z,21.69
2022-08-28T21:27:38.954Z,21.74
2022-08-28T21:30:08.396Z,21.86
2022-08-28T21:32:36.863Z,21.86
2022-08-28T21:35:07.782Z,21.95
2022-08-28T21:37:35.562Z,21.95
2022-08-28T21:40:06.632Z,21.97
2022-08-28T21:42:35.070Z,21.91
2022-08-28T21:45:07.255Z,21.82
2022-08-28T21:47:37.989Z,21.82
2022-08-28T21:50:06.367Z,21.90
2022-08-28T21:52:34.830Z,21.86
2022-08-28T21:55:08.480Z,21.65
2022-08-28T21:57:36.423Z,21.67
2022-08-28T22:00:09.789Z,21.74
2022-08-28T22:02:37.189Z,21.80
2022-08-28T22:05:05.067Z,21.78
2022-08-28T22:07:32.509Z,21.76
2022-08-28T22:09:59.914Z,21.68
2022-08-28T22:12:27.469Z,21.63
2022-08-28T22:14:58.606Z,21.53
2022-08-28T22:17:26.209Z,21.44
2022-08-28T22:19:53.768Z,21.42
2022-08-28T22:22:40.063Z,21.33
2022-08-28T22:25:10.641Z,21.28
2022-08-28T22:27:38.102Z,21.26
2022-08-28T22:30:06.608Z,21.21
2022-08-28T22:32:34.156Z,21.14
2022-08-28T22:35:01.797Z,21.02
2022-08-28T22:37:29.271Z,21.00
2022-08-28T22:39:57.493Z,21.03
2022-08-28T22:42:25.105Z,20.98
2022-08-28T22:44:52.677Z,21.01
2022-08-28T22:47:21.385Z,21.21
2022-08-28T22:49:49.840Z,21.35
2022-08-28T22:52:17.554Z,21.41
2022-08-28T22:54:45.071Z,21.45
2022-08-28T22:57:12.642Z,21.50
2022-08-28T22:59:40.145Z,21.54
2022-08-28T23:02:08.307Z,21.65
2022-08-28T23:04:35.866Z,21.66
2022-08-28T23:07:04.696Z,21.67
2022-08-28T23:09:32.714Z,21.72
2022-08-28T23:12:07.832Z,21.68
2022-08-28T23:14:35.627Z,21.63
2022-08-28T23:17:03.241Z,21.62
2022-08-28T23:19:31.937Z,21.54
2022-08-28T23:21:59.836Z,21.37
2022-08-28T23:24:27.223Z,21.40
2022-08-28T23:26:54.921Z,21.39
2022-08-28T23:29:22.427Z,21.43
2022-08-28T23:31:50.108Z,21.31
2022-08-28T23:34:17.708Z,21.31
2022-08-28T23:36:45.310Z,21.33
2022-08-28T23:39:13.467Z,21.15
2022-08-28T23:41:41.091Z,21.14
2022-08-28T23:44:09.364Z,21.14
2022-08-28T23:46:41.611Z,21.19
2022-08-28T23:49:10.605Z,21.27
2022-08-28T23:51:39.132Z,21.37
2022-08-28T23:54:08.459Z,21.42
2022-08-28T23:56:37.594Z,21.47
2022-08-28T23:59:05.903Z,21.53
